createdAt,value
2023-03-02T00:01:51.477Z,1.00
2023-03-02T00:07:11.772Z,0.90
2023-03-02T00:09:43.124Z,0.90
2023-03-02T00:12:11.500Z,0.90
2023-03-02T00:14:39.719Z,0.80
2023-03-02T00:17:08.412Z,0.80
2023-03-02T00:19:36.610Z,0.80
2023-03-02T00:22:05.044Z,0.80
2023-03-02T00:24:33.359Z,0.70
2023-03-02T00:27:02.868Z,0.70
2023-03-02T00:29:31.088Z,0.70
2023-03-02T00:31:59.251Z,0.70
2023-03-02T00:34:27.423Z,0.70
2023-03-02T00:36:55.582Z,0.80
2023-03-02T00:39:23.745Z,0.70
2023-03-02T00:41:51.943Z,0.80
2023-03-02T00:44:21.488Z,0.80
2023-03-02T00:46:49.497Z,0.80
2023-03-02T00:49:18.137Z,0.80
2023-03-02T00:51:47.267Z,0.80
2023-03-02T00:54:15.377Z,0.80
2023-03-02T00:56:43.896Z,0.70
2023-03-02T00:59:26.141Z,0.80
2023-03-02T01:01:58.242Z,0.70
2023-03-02T01:04:29.761Z,0.70
2023-03-02T01:06:58.327Z,0.70
2023-03-02T01:09:26.787Z,0.70
2023-03-02T01:11:55.101Z,0.70
2023-03-02T01:14:23.671Z,0.60
2023-03-02T01:16:51.961Z,0.60
2023-03-02T01:19:21.457Z,0.60
2023-03-02T01:21:49.598Z,0.60
2023-03-02T01:24:17.799Z,0.50
2023-03-02T01:26:45.916Z,0.50
2023-03-02T01:29:14.270Z,0.50
2023-03-02T01:31:42.533Z,0.50
2023-03-02T01:34:10.799Z,0.40
2023-03-02T01:36:40.268Z,0.50
2023-03-02T01:39:08.433Z,0.40
2023-03-02T01:41:36.613Z,0.50
2023-03-02T01:44:04.815Z,0.50
2023-03-02T01:46:35.179Z,0.40
2023-03-02T01:49:06.073Z,0.40
2023-03-02T01:51:46.858Z,0.50
2023-03-02T01:54:22.957Z,0.40
2023-03-02T01:56:54.039Z,0.30
2023-03-02T01:59:24.869Z,0.40
2023-03-02T02:01:56.799Z,0.30
2023-03-02T02:04:27.046Z,0.30
2023-03-02T02:07:00.571Z,0.40
2023-03-02T02:09:34.667Z,0.40
2023-03-02T02:12:02.817Z,0.30
2023-03-02T02:14:31.042Z,0.40
2023-03-02T02:16:59.454Z,0.40
2023-03-02T02:19:41.324Z,0.30
2023-03-02T02:22:10.935Z,0.20
2023-03-02T02:24:45.137Z,0.30
2023-03-02T02:27:15.698Z,0.30
2023-03-02T02:29:47.802Z,0.30
2023-03-02T02:32:19.096Z,0.30
2023-03-02T02:34:53.270Z,0.20
2023-03-02T02:37:24.827Z,0.30
2023-03-02T02:39:53.304Z,0.40
2023-03-02T02:42:27.656Z,0.30
2023-03-02T02:44:58.888Z,0.20
2023-03-02T02:47:27.209Z,0.20
2023-03-02T02:49:56.867Z,0.30
2023-03-02T02:52:27.128Z,0.30
2023-03-02T02:54:57.346Z,0.30
2023-03-02T02:57:30.148Z,0.20
2023-03-02T03:00:01.135Z,0.20
2023-03-02T03:02:32.862Z,0.20
2023-03-02T03:05:03.856Z,0.30
2023-03-02T03:07:33.281Z,0.20
2023-03-02T03:10:09.540Z,0.20
2023-03-02T03:12:40.759Z,0.30
2023-03-02T03:15:10.590Z,0.10
2023-03-02T03:17:38.780Z,0.10
2023-03-02T03:20:09.477Z,0.20
2023-03-02T03:22:38.968Z,0.20
2023-03-02T03:25:07.641Z,0.20
2023-03-02T03:27:35.720Z,0.20
2023-03-02T03:30:05.922Z,0.20
2023-03-02T03:32:35.573Z,0.20
2023-03-02T03:35:03.687Z,0.10
2023-03-02T03:37:31.848Z,0.10
2023-03-02T03:39:59.879Z,0.10
2023-03-02T03:42:28.442Z,0.10
2023-03-02T03:44:56.579Z,0.10
2023-03-02T03:47:26.047Z,0.00
2023-03-02T03:49:54.110Z,0.00
2023-03-02T03:52:30.464Z,0.00
2023-03-02T03:54:59.689Z,0.10
2023-03-02T03:57:28.239Z,0.10
2023-03-02T03:59:56.753Z,0.00
2023-03-02T04:02:26.229Z,0.00
2023-03-02T04:04:54.333Z,0.00
2023-03-02T04:07:22.399Z,0.00
2023-03-02T04:10:03.348Z,0.00
2023-03-02T04:12:32.126Z,0.00
2023-03-02T04:15:00.304Z,0.00
2023-03-02T04:17:29.995Z,0.00
2023-03-02T04:19:58.726Z,-0.10
2023-03-02T04:22:27.375Z,-0.10
2023-03-02T04:24:55.516Z,-0.20
2023-03-02T04:27:23.561Z,-0.10
2023-03-02T04:29:53.123Z,-0.20
2023-03-02T04:32:21.241Z,-0.10
2023-03-02T04:34:50.794Z,-0.10
2023-03-02T04:37:18.899Z,-0.10
2023-03-02T04:39:51.161Z,-0.10
2023-03-02T04:42:19.352Z,-0.10
2023-03-02T04:44:47.712Z,-0.10
2023-03-02T04:47:16.036Z,-0.10
2023-03-02T04:49:44.352Z,-0.30
2023-03-02T04:52:13.963Z,-0.30
2023-03-02T04:54:42.190Z,-0.40
2023-03-02T04:57:10.316Z,-0.40
2023-03-02T04:59:38.453Z,-0.40
2023-03-02T05:02:06.535Z,-0.30
2023-03-02T05:04:34.785Z,-0.30
2023-03-02T05:07:02.877Z,-0.30
2023-03-02T05:09:32.249Z,-0.40
2023-03-02T05:12:01.797Z,-0.40
2023-03-02T05:14:30.200Z,-0.30
2023-03-02T05:16:58.408Z,-0.30
2023-03-02T05:19:26.838Z,-0.40
2023-03-02T05:21:56.381Z,-0.40
2023-03-02T05:24:24.483Z,-0.40
2023-03-02T05:26:53.868Z,-0.50
2023-03-02T05:29:22.070Z,-0.50
2023-03-02T05:31:51.017Z,-0.40
2023-03-02T05:34:20.179Z,-0.40
2023-03-02T05:36:48.267Z,-0.50
2023-03-02T05:39:16.252Z,-0.50
2023-03-02T05:41:44.400Z,-0.50
2023-03-02T05:44:13.806Z,-0.50
2023-03-02T05:46:41.947Z,-0.50
2023-03-02T05:49:10.686Z,-0.60
2023-03-02T05:51:38.838Z,-0.60
2023-03-02T05:54:07.013Z,-0.50
2023-03-02T05:56:35.269Z,-0.60
2023-03-02T05:59:03.599Z,-0.60
2023-03-02T06:01:33.402Z,-0.60
2023-03-02T06:04:01.748Z,-0.60
2023-03-02T06:06:30.289Z,-0.60
2023-03-02T06:08:59.370Z,-0.60
2023-03-02T06:11:27.575Z,-0.70
2023-03-02T06:13:55.619Z,-0.70
2023-03-02T06:16:23.881Z,-0.70
2023-03-02T06:18:53.360Z,-0.70
2023-03-02T06:21:21.458Z,-0.70
2023-03-02T06:23:49.543Z,-0.70
2023-03-02T06:26:17.612Z,-0.70
2023-03-02T06:28:52.559Z,-0.70
2023-03-02T06:31:22.190Z,-0.70
2023-03-02T06:33:50.272Z,-0.70
2023-03-02T06:36:19.710Z,-0.70
2023-03-02T06:38:47.853Z,-0.70
2023-03-02T06:41:16.346Z,-0.60
2023-03-02T06:43:44.612Z,-0.70
2023-03-02T06:46:12.709Z,-0.60
2023-03-02T06:48:40.885Z,-0.60
2023-03-02T06:51:09.162Z,-0.60
2023-03-02T06:53:38.593Z,-0.60
2023-03-02T06:56:07.897Z,-0.60
2023-03-02T06:58:36.175Z,-0.60
2023-03-02T07:01:04.822Z,-0.50
2023-03-02T07:03:33.129Z,-0.50
2023-03-02T07:06:01.220Z,-0.50
2023-03-02T07:08:29.690Z,-0.50
2023-03-02T07:10:59.302Z,-0.50
2023-03-02T07:13:27.429Z,-0.40
2023-03-02T07:15:55.505Z,-0.30
2023-03-02T07:18:23.559Z,-0.30
2023-03-02T07:20:51.641Z,-0.30
2023-03-02T07:23:19.776Z,-0.20
2023-03-02T07:25:47.881Z,-0.20
2023-03-02T07:28:17.242Z,-0.10
2023-03-02T07:30:45.392Z,0.00
2023-03-02T07:33:13.476Z,0.00
2023-03-02T07:35:42.050Z,0.10
2023-03-02T07:38:10.154Z,0.20
2023-03-02T07:40:41.588Z,0.20
2023-03-02T07:43:10.378Z,0.30
2023-03-02T07:45:39.884Z,0.40
2023-03-02T07:48:08.393Z,0.40
2023-03-02T07:50:36.796Z,0.50
2023-03-02T07:53:04.838Z,0.60
2023-03-02T07:55:33.079Z,0.70
2023-03-02T07:58:01.266Z,0.80
2023-03-02T08:00:29.355Z,0.90
2023-03-02T08:02:58.894Z,1.00
2023-03-02T08:05:27.285Z,1.10
2023-03-02T08:07:55.394Z,1.20
2023-03-02T08:10:24.020Z,1.30
2023-03-02T08:12:52.090Z,1.40
2023-03-02T08:15:20.224Z,1.60
2023-03-02T08:17:48.312Z,1.70
2023-03-02T08:20:17.914Z,1.70
2023-03-02T08:22:46.074Z,1.90
2023-03-02T08:25:14.299Z,2.10
2023-03-02T08:27:42.429Z,2.20
2023-03-02T08:30:12.539Z,2.30
2023-03-02T08:32:41.292Z,2.40
2023-03-02T08:35:10.070Z,2.50
2023-03-02T08:37:39.469Z,2.70
2023-03-02T08:40:08.862Z,2.80
2023-03-02T08:42:36.901Z,2.90
2023-03-02T08:45:05.682Z,3.00
2023-03-02T08:47:34.056Z,3.00
2023-03-02T08:50:02.144Z,3.10
2023-03-02T08:52:30.318Z,3.30
2023-03-02T08:55:00.488Z,3.30
2023-03-02T08:57:29.763Z,3.50
2023-03-02T08:59:57.928Z,3.50
2023-03-02T09:02:26.035Z,3.60
2023-03-02T09:04:54.363Z,3.60
2023-03-02T09:07:22.571Z,3.60
2023-03-02T09:09:50.690Z,3.80
2023-03-02T09:12:20.123Z,3.90
2023-03-02T09:14:48.450Z,3.90
2023-03-02T09:17:17.314Z,4.00
2023-03-02T09:19:45.368Z,4.20
2023-03-02T09:22:13.484Z,4.20
2023-03-02T09:24:41.609Z,4.20
2023-03-02T09:27:09.708Z,4.30
2023-03-02T09:29:39.110Z,4.40
2023-03-02T09:32:07.393Z,4.40
2023-03-02T09:34:36.097Z,4.50
2023-03-02T09:37:04.554Z,4.60
2023-03-02T09:39:32.783Z,5.00
2023-03-02T09:42:18.775Z,4.90
2023-03-02T09:45:22.194Z,4.90
2023-03-02T09:48:00.120Z,5.20
2023-03-02T09:50:32.756Z,5.20
2023-03-02T09:53:19.441Z,5.20
2023-03-02T09:55:52.203Z,5.30
2023-03-02T09:58:22.896Z,5.50
2023-03-02T10:00:52.986Z,5.50
2023-03-02T10:03:24.137Z,5.50
2023-03-02T10:05:54.776Z,5.80
2023-03-02T10:08:25.103Z,5.90
2023-03-02T10:10:58.964Z,6.00
2023-03-02T10:13:30.399Z,6.20
2023-03-02T10:16:09.660Z,6.00
2023-03-02T10:18:42.507Z,6.20
2023-03-02T10:21:21.457Z,6.20
2023-03-02T10:23:56.145Z,6.40
2023-03-02T10:26:30.505Z,6.40
2023-03-02T10:29:06.730Z,6.80
2023-03-02T10:31:39.729Z,6.90
2023-03-02T10:34:10.852Z,6.90
2023-03-02T10:36:41.152Z,6.90
2023-03-02T10:39:14.688Z,7.10
2023-03-02T10:41:49.540Z,7.30
2023-03-02T10:44:22.531Z,7.60
2023-03-02T10:46:53.797Z,7.60
2023-03-02T10:49:28.101Z,7.50
2023-03-02T10:52:01.334Z,7.70
2023-03-02T10:54:31.005Z,7.60
2023-03-02T10:57:01.439Z,7.50
2023-03-02T10:59:51.084Z,7.50
2023-03-02T11:02:23.798Z,7.80
2023-03-02T11:04:57.462Z,7.60
2023-03-02T11:07:28.139Z,8.00
2023-03-02T11:10:01.718Z,8.30
2023-03-02T11:12:31.250Z,8.40
2023-03-02T11:15:20.365Z,8.30
2023-03-02T11:17:51.983Z,8.70
2023-03-02T11:20:25.922Z,8.40
2023-03-02T11:23:06.323Z,8.50
2023-03-02T11:25:40.299Z,8.70
2023-03-02T11:28:16.809Z,8.70
2023-03-02T11:30:49.720Z,8.80
2023-03-02T11:33:25.669Z,9.00
2023-03-02T11:35:58.257Z,9.30
2023-03-02T11:38:28.148Z,9.20
2023-03-02T11:40:59.444Z,9.50
2023-03-02T11:43:28.149Z,9.20
2023-03-02T11:46:00.305Z,9.50
2023-03-02T11:48:34.526Z,9.60
2023-03-02T11:51:06.232Z,9.70
2023-03-02T11:53:44.315Z,9.90
2023-03-02T11:56:12.826Z,9.70
2023-03-02T11:58:43.034Z,9.70
2023-03-02T12:01:17.751Z,9.70
2023-03-02T12:03:48.252Z,10.00
2023-03-02T12:06:29.901Z,9.90
2023-03-02T12:09:30.779Z,10.00
2023-03-02T12:12:01.992Z,10.10
2023-03-02T12:14:38.182Z,10.10
2023-03-02T12:17:18.555Z,10.00
2023-03-02T12:19:50.341Z,10.30
2023-03-02T12:22:28.429Z,10.60
2023-03-02T12:25:06.948Z,10.30
2023-03-02T12:27:37.629Z,10.20
2023-03-02T12:30:26.195Z,10.50
2023-03-02T12:33:04.006Z,10.90
2023-03-02T12:35:35.396Z,10.90
2023-03-02T12:38:06.454Z,11.00
2023-03-02T12:40:45.982Z,10.80
2023-03-02T12:43:32.799Z,10.90
2023-03-02T12:46:27.415Z,10.70
2023-03-02T12:49:16.605Z,10.60
2023-03-02T12:51:49.899Z,10.70
2023-03-02T12:54:20.550Z,10.80
2023-03-02T12:56:50.198Z,10.50
2023-03-02T12:59:23.765Z,10.80
2023-03-02T13:01:52.480Z,10.80
2023-03-02T13:04:25.977Z,10.70
2023-03-02T13:06:56.013Z,10.90
2023-03-02T13:09:24.807Z,11.10
2023-03-02T13:11:55.157Z,10.80
2023-03-02T13:14:27.286Z,10.80
2023-03-02T13:16:57.879Z,11.30
2023-03-02T13:19:27.018Z,11.10
2023-03-02T13:21:56.592Z,11.40
2023-03-02T13:24:32.704Z,11.20
2023-03-02T13:27:06.603Z,11.30
2023-03-02T13:29:35.456Z,11.20
2023-03-02T13:32:20.403Z,11.10
2023-03-02T13:34:50.830Z,11.20
2023-03-02T13:37:24.500Z,11.30
2023-03-02T13:39:57.316Z,11.50
2023-03-02T13:42:30.940Z,11.80
2023-03-02T13:45:10.570Z,11.60
2023-03-02T13:47:43.698Z,11.50
2023-03-02T13:50:19.627Z,11.40
2023-03-02T13:52:50.063Z,11.30
2023-03-02T13:55:21.483Z,10.90
2023-03-02T13:57:50.808Z,11.30
2023-03-02T14:00:22.951Z,11.40
2023-03-02T14:02:51.599Z,11.30
2023-03-02T14:05:22.008Z,11.50
2023-03-02T14:07:51.567Z,11.20
2023-03-02T14:10:21.229Z,11.20
2023-03-02T14:12:56.756Z,11.10
2023-03-02T14:15:25.665Z,11.00
2023-03-02T14:17:54.041Z,11.10
2023-03-02T14:20:22.151Z,11.20
2023-03-02T14:22:51.597Z,10.80
2023-03-02T14:25:20.497Z,10.80
2023-03-02T14:27:48.620Z,10.50
2023-03-02T14:30:19.227Z,10.40
2023-03-02T14:32:47.968Z,10.50
2023-03-02T14:35:17.532Z,10.40
2023-03-02T14:37:47.769Z,10.40
2023-03-02T14:40:18.948Z,10.40
2023-03-02T14:42:47.035Z,10.40
2023-03-02T14:45:15.192Z,10.20
2023-03-02T14:47:43.309Z,10.20
2023-03-02T14:50:12.698Z,10.20
2023-03-02T14:52:44.668Z,10.40
2023-03-02T14:55:19.311Z,10.30
2023-03-02T14:57:56.950Z,10.10
2023-03-02T15:00:25.445Z,10.00
2023-03-02T15:02:54.002Z,9.90
2023-03-02T15:05:23.747Z,10.00
2023-03-02T15:07:53.604Z,10.00
2023-03-02T15:10:23.662Z,10.00
2023-03-02T15:12:52.037Z,10.00
2023-03-02T15:15:20.239Z,10.00
2023-03-02T15:17:48.335Z,9.90
2023-03-02T15:20:18.237Z,9.90
2023-03-02T15:22:47.071Z,9.80
2023-03-02T15:25:15.197Z,9.70
2023-03-02T15:27:44.608Z,9.70
2023-03-02T15:30:13.460Z,9.70
2023-03-02T15:32:41.546Z,9.70
2023-03-02T15:35:10.218Z,9.70
2023-03-02T15:37:38.290Z,9.70
2023-03-02T15:40:07.674Z,9.50
2023-03-02T15:42:36.222Z,9.50
2023-03-02T15:45:06.518Z,9.50
2023-03-02T15:47:34.625Z,9.50
2023-03-02T15:50:02.672Z,9.40
2023-03-02T15:52:30.723Z,9.30
2023-03-02T15:54:58.820Z,9.30
2023-03-02T15:57:26.926Z,9.40
2023-03-02T15:59:55.048Z,9.40
2023-03-02T16:02:24.443Z,9.40
2023-03-02T16:04:52.503Z,9.20
2023-03-02T16:07:20.581Z,9.10
2023-03-02T16:09:48.818Z,9.10
2023-03-02T16:12:20.352Z,9.00
2023-03-02T16:14:48.391Z,8.90
2023-03-02T16:17:17.810Z,8.80
2023-03-02T16:19:47.709Z,8.80
2023-03-02T16:22:15.857Z,8.70
2023-03-02T16:24:44.109Z,8.60
2023-03-02T16:27:12.234Z,8.50
2023-03-02T16:29:40.310Z,8.50
2023-03-02T16:32:09.087Z,8.50
2023-03-02T16:34:37.668Z,8.40
2023-03-02T16:37:07.170Z,8.30
2023-03-02T16:39:36.887Z,8.30
2023-03-02T16:42:06.251Z,8.30
2023-03-02T16:44:34.449Z,8.20
2023-03-02T16:47:02.379Z,8.10
2023-03-02T16:49:30.563Z,8.10
2023-03-02T16:51:59.197Z,8.00
2023-03-02T16:54:28.930Z,7.90
2023-03-02T16:56:57.117Z,7.90
2023-03-02T16:59:25.176Z,7.80
2023-03-02T17:01:53.307Z,7.80
2023-03-02T17:04:22.040Z,7.60
2023-03-02T17:07:05.206Z,7.60
2023-03-02T17:09:36.214Z,7.50
2023-03-02T17:12:05.459Z,7.40
2023-03-02T17:14:33.616Z,7.40
2023-03-02T17:17:02.588Z,7.20
2023-03-02T17:19:30.772Z,7.10
2023-03-02T17:21:59.291Z,7.10
2023-03-02T17:24:27.565Z,7.00
2023-03-02T17:26:57.442Z,7.00
2023-03-02T17:29:25.554Z,6.90
2023-03-02T17:31:54.060Z,6.90
2023-03-02T17:34:22.249Z,6.80
2023-03-02T17:36:50.317Z,6.80
2023-03-02T17:39:18.362Z,6.70
2023-03-02T17:41:46.470Z,6.70
2023-03-02T17:44:15.870Z,6.60
2023-03-02T17:46:45.412Z,6.50
2023-03-02T17:49:14.180Z,6.50
2023-03-02T17:51:42.211Z,6.40
2023-03-02T17:54:10.374Z,6.40
2023-03-02T17:56:38.514Z,6.30
2023-03-02T17:59:06.802Z,6.30
2023-03-02T18:01:36.519Z,6.30
2023-03-02T18:04:04.896Z,6.20
2023-03-02T18:06:33.082Z,6.20
2023-03-02T18:09:01.185Z,6.10
2023-03-02T18:11:29.374Z,6.10
2023-03-02T18:13:58.034Z,6.00
2023-03-02T18:16:29.216Z,6.00
2023-03-02T18:18:58.891Z,5.90
2023-03-02T18:21:27.288Z,5.90
2023-03-02T18:23:55.440Z,5.80
2023-03-02T18:26:23.970Z,5.80
2023-03-02T18:28:52.110Z,5.70
2023-03-02T18:31:20.507Z,5.70
2023-03-02T18:33:49.662Z,5.60
2023-03-02T18:36:19.411Z,5.60
2023-03-02T18:38:47.596Z,5.60
2023-03-02T18:41:15.715Z,5.50
2023-03-02T18:43:44.275Z,5.50
2023-03-02T18:46:19.757Z,5.40
2023-03-02T18:48:49.612Z,5.40
2023-03-02T18:51:19.815Z,5.30
2023-03-02T18:53:48.704Z,5.30
2023-03-02T18:56:17.143Z,5.30
2023-03-02T18:58:45.569Z,5.20
2023-03-02T19:01:14.976Z,5.20
2023-03-02T19:03:45.890Z,5.10
2023-03-02T19:06:15.059Z,5.10
2023-03-02T19:08:44.592Z,5.00
2023-03-02T19:11:14.027Z,5.00
2023-03-02T19:13:42.248Z,5.00
2023-03-02T19:16:10.866Z,4.90
2023-03-02T19:18:39.354Z,4.90
2023-03-02T19:21:08.049Z,4.90
2023-03-02T19:23:36.271Z,4.90
2023-03-02T19:26:06.162Z,4.80
2023-03-02T19:28:36.243Z,4.80
2023-03-02T19:31:06.712Z,4.80
2023-03-02T19:33:34.996Z,4.70
2023-03-02T19:36:03.316Z,4.70
2023-03-02T19:38:32.277Z,4.60
2023-03-02T19:41:02.136Z,4.60
2023-03-02T19:43:31.800Z,4.60
2023-03-02T19:46:00.754Z,4.50
2023-03-02T19:48:29.848Z,4.50
2023-03-02T19:50:57.960Z,4.50
2023-03-02T19:53:26.156Z,4.40
2023-03-02T19:55:54.274Z,4.40
2023-03-02T19:58:23.639Z,4.40
2023-03-02T20:00:53.125Z,4.30
2023-03-02T20:03:21.402Z,4.30
2023-03-02T20:05:49.518Z,4.30
2023-03-02T20:08:21.576Z,4.20
2023-03-02T20:10:50.231Z,4.20
2023-03-02T20:13:19.031Z,4.20
2023-03-02T20:15:48.305Z,4.20
2023-03-02T20:18:20.436Z,4.10
2023-03-02T20:20:48.798Z,4.10
2023-03-02T20:23:17.679Z,4.10
2023-03-02T20:25:48.248Z,4.10
2023-03-02T20:28:18.887Z,4.10
2023-03-02T20:30:49.883Z,4.00
2023-03-02T20:33:20.230Z,4.00
2023-03-02T20:35:49.005Z,4.00
2023-03-02T20:38:20.200Z,3.90
2023-03-02T20:40:48.367Z,3.90
2023-03-02T20:43:17.068Z,3.90
2023-03-02T20:45:45.468Z,3.90
2023-03-02T20:48:14.485Z,3.80
2023-03-02T20:50:44.905Z,3.80
2023-03-02T20:53:13.710Z,3.70
2023-03-02T20:55:42.009Z,3.70
2023-03-02T20:58:10.474Z,3.70
2023-03-02T21:00:39.803Z,3.60
2023-03-02T21:03:08.885Z,3.70
2023-03-02T21:05:40.085Z,3.60
2023-03-02T21:08:11.158Z,3.50
2023-03-02T21:10:40.028Z,3.60
2023-03-02T21:13:08.553Z,3.50
2023-03-02T21:15:37.407Z,3.50
2023-03-02T21:18:05.906Z,3.50
2023-03-02T21:20:36.801Z,3.40
2023-03-02T21:23:05.816Z,3.40
2023-03-02T21:25:35.527Z,3.40
2023-03-02T21:28:03.821Z,3.40
2023-03-02T21:30:34.970Z,3.30
2023-03-02T21:33:04.498Z,3.30
2023-03-02T21:35:32.574Z,3.20
2023-03-02T21:38:04.831Z,3.10
2023-03-02T21:40:37.635Z,3.20
2023-03-02T21:43:06.564Z,3.10
2023-03-02T21:45:35.924Z,3.10
2023-03-02T21:48:05.093Z,3.10
2023-03-02T21:50:35.594Z,3.10
2023-03-02T21:53:04.339Z,3.00
2023-03-02T21:55:32.608Z,3.00
2023-03-02T21:58:02.167Z,3.00
2023-03-02T22:00:32.618Z,3.00
2023-03-02T22:03:01.492Z,2.90
2023-03-02T22:05:29.873Z,2.80
2023-03-02T22:07:58.128Z,2.80
2023-03-02T22:10:31.275Z,2.80
2023-03-02T22:13:14.973Z,2.80
2023-03-02T22:15:43.093Z,2.80
2023-03-02T22:18:13.325Z,2.80
2023-03-02T22:20:43.745Z,2.70
2023-03-02T22:23:13.890Z,2.70
2023-03-02T22:25:43.531Z,2.60
2023-03-02T22:28:21.945Z,2.70
2023-03-02T22:30:51.313Z,2.60
2023-03-02T22:33:21.537Z,2.60
2023-03-02T22:35:51.322Z,2.60
2023-03-02T22:38:25.082Z,2.60
2023-03-02T22:40:53.499Z,2.60
2023-03-02T22:43:26.156Z,2.50
2023-03-02T22:45:55.556Z,2.50
2023-03-02T22:48:25.544Z,2.60
2023-03-02T22:50:53.661Z,2.50
2023-03-02T22:53:26.836Z,2.60
2023-03-02T22:55:56.879Z,2.50
2023-03-02T22:58:43.662Z,2.60
2023-03-02T23:01:21.212Z,2.50
2023-03-02T23:03:51.016Z,2.50
2023-03-02T23:06:26.854Z,2.50
2023-03-02T23:08:56.272Z,2.50
2023-03-02T23:11:25.427Z,2.50
2023-03-02T23:13:55.922Z,2.40
2023-03-02T23:16:26.448Z,2.40
2023-03-02T23:18:56.899Z,2.40
2023-03-02T23:21:28.682Z,2.40
2023-03-02T23:23:56.812Z,2.30
2023-03-02T23:26:24.910Z,2.40
2023-03-02T23:28:54.350Z,2.30
2023-03-02T23:31:22.435Z,2.30
2023-03-02T23:33:50.628Z,2.20
2023-03-02T23:36:21.099Z,2.20
2023-03-02T23:38:49.673Z,2.20
2023-03-02T23:41:18.295Z,2.20
2023-03-02T23:43:46.858Z,2.20
2023-03-02T23:46:16.166Z,2.20
2023-03-02T23:48:44.705Z,2.10
2023-03-02T23:51:12.796Z,2.00
2023-03-02T23:53:40.898Z,2.10
2023-03-02T23:56:09.446Z,2.10
2023-03-02T23:58:37.561Z,2.10
